Time;durP1;ratioP1;P1;durP2;ratioP2;P2;SDS_P1;SDS_P2;PMS_P1;PMS_P2;Temp;Humidity;BMP_temperature;BMP_pressure;BME280_temperature;BME280_humidity;BME280_pressure;Samples;Min_cycle;Max_cycle;Signal;HPM_P1;HPM_P2
2022/09/25 00:00:12;;;;;;;11.85;6.88;;;14.60;99.90;;;;;;4994694;28;20459;-74
2022/09/25 00:02:37;;;;;;;11.63;6.25;;;14.60;99.90;;;;;;4996426;28;20042;-74
2022/09/25 00:05:03;;;;;;;11.82;6.13;;;14.50;99.90;;;;;;4995412;28;20049;-75
2022/09/25 00:07:29;;;;;;;8.65;5.45;;;14.60;99.90;;;;;;4994731;28;20037;-74
2022/09/25 00:09:54;;;;;;;10.30;5.68;;;14.50;99.90;;;;;;4996351;28;20026;-74
2022/09/25 00:12:20;;;;;;;10.38;5.90;;;14.60;99.90;;;;;;4996087;28;20180;-74
2022/09/25 00:14:49;;;;;;;9.35;5.45;;;14.60;99.90;;;;;;4994663;28;20112;-74
2022/09/25 00:17:15;;;;;;;9.85;5.40;;;14.60;99.90;;;;;;4994173;28;20034;-74
2022/09/25 00:19:49;;;;;;;10.90;5.10;;;14.50;99.90;;;;;;4994999;28;20038;-74
2022/09/25 00:22:16;;;;;;;11.82;5.03;;;14.50;99.90;;;;;;4994162;28;20032;-74
2022/09/25 00:24:42;;;;;;;8.20;4.85;;;14.50;99.90;;;;;;4994683;28;20026;-75
2022/09/25 00:27:08;;;;;;;8.85;4.93;;;14.50;99.90;;;;;;4993964;28;20122;-75
2022/09/25 00:29:36;;;;;;;8.35;4.82;;;14.50;99.90;;;;;;4995959;28;20023;-74
2022/09/25 00:32:02;;;;;;;9.73;5.07;;;14.50;99.90;;;;;;4994601;28;20038;-75
2022/09/25 00:34:28;;;;;;;7.18;5.05;;;14.50;99.90;;;;;;4995340;28;20058;-74
2022/09/25 00:36:54;;;;;;;9.25;5.30;;;14.40;99.90;;;;;;4994603;28;20459;-74
2022/09/25 00:39:19;;;;;;;8.80;5.07;;;14.50;99.90;;;;;;4993929;28;20212;-74
2022/09/25 00:41:45;;;;;;;8.55;5.00;;;14.50;99.90;;;;;;4995778;28;20383;-74
2022/09/25 00:44:55;;;;;;;10.30;5.25;;;14.40;99.90;;;;;;4994949;28;20395;-75
2022/09/25 00:47:37;;;;;;;15.65;5.45;;;14.40;99.90;;;;;;4995275;28;20026;-75
2022/09/25 00:50:10;;;;;;;8.55;4.85;;;14.40;99.90;;;;;;4995715;28;20100;-74
2022/09/25 00:52:36;;;;;;;8.88;5.00;;;14.40;99.90;;;;;;4996178;28;20038;-74
2022/09/25 00:55:05;;;;;;;9.38;5.10;;;14.40;99.90;;;;;;4995815;28;20022;-75
2022/09/25 00:57:35;;;;;;;9.10;4.90;;;14.40;99.90;;;;;;4993512;28;20031;-74
2022/09/25 01:00:06;;;;;;;9.30;4.60;;;14.40;99.90;;;;;;4993882;28;20042;-75
2022/09/25 01:02:38;;;;;;;12.02;5.00;;;14.40;99.90;;;;;;4993639;28;20030;-74
2022/09/25 01:05:08;;;;;;;7.93;4.70;;;14.40;99.90;;;;;;4994207;28;20527;-74
2022/09/25 01:07:39;;;;;;;7.90;5.18;;;14.40;99.90;;;;;;4995792;28;20030;-74
2022/09/25 01:10:07;;;;;;;7.78;4.57;;;14.40;99.90;;;;;;4995153;28;20022;-74
2022/09/25 01:12:37;;;;;;;10.23;5.25;;;14.40;99.90;;;;;;4993401;28;20033;-74
2022/09/25 01:15:11;;;;;;;7.40;4.40;;;14.40;99.90;;;;;;4994198;28;20081;-74
2022/09/25 01:17:56;;;;;;;8.68;4.68;;;14.40;99.90;;;;;;4993816;28;20129;-74
2022/09/25 01:20:24;;;;;;;9.43;5.20;;;14.40;99.90;;;;;;4994688;28;20041;-75
2022/09/25 01:23:11;;;;;;;9.93;5.05;;;14.30;99.90;;;;;;4977642;28;20030;-74
2022/09/25 01:26:09;;;;;;;9.80;5.10;;;14.30;99.90;;;;;;4994070;28;20085;-74
2022/09/25 01:29:08;;;;;;;6.28;4.22;;;14.30;99.90;;;;;;4975175;28;20112;-75
2022/09/25 01:32:10;;;;;;;8.95;4.53;;;14.30;99.90;;;;;;4976706;28;20030;-74
2022/09/25 01:35:07;;;;;;;5.50;4.05;;;14.40;99.90;;;;;;4994536;28;20054;-75
2022/09/25 01:37:37;;;;;;;4.95;3.67;;;14.40;99.90;;;;;;4992811;28;20431;-74
2022/09/25 01:40:06;;;;;;;7.78;4.85;;;14.40;99.90;;;;;;4977027;28;20126;-74
2022/09/25 01:42:51;;;;;;;7.30;5.30;;;14.40;99.90;;;;;;4976676;28;20030;-74
2022/09/25 01:45:31;;;;;;;8.07;4.72;;;14.40;99.90;;;;;;4992878;28;20037;-75
2022/09/25 01:48:00;;;;;;;7.47;4.88;;;14.40;99.90;;;;;;4993332;28;20390;-74
2022/09/25 01:50:35;;;;;;;8.48;4.30;;;14.40;99.90;;;;;;4992369;28;20061;-74
2022/09/25 01:53:06;;;;;;;7.70;4.28;;;14.40;99.90;;;;;;4993271;28;20034;-74
2022/09/25 01:55:39;;;;;;;8.20;4.22;;;14.40;99.90;;;;;;4992617;28;20452;-74
2022/09/25 01:58:17;;;;;;;7.38;5.05;;;14.40;99.90;;;;;;4993164;28;20419;-74
2022/09/25 02:00:49;;;;;;;7.95;4.68;;;14.40;99.90;;;;;;4992658;28;20038;-74
2022/09/25 02:03:23;;;;;;;7.32;4.70;;;14.50;99.90;;;;;;4992680;28;20422;-74
2022/09/25 02:05:55;;;;;;;7.78;4.50;;;14.40;99.90;;;;;;4992788;28;20026;-74
2022/09/25 02:08:34;;;;;;;7.50;4.68;;;14.40;99.90;;;;;;4992618;28;20146;-74
2022/09/25 02:11:03;;;;;;;8.23;4.60;;;14.40;99.90;;;;;;4993147;28;20080;-75
2022/09/25 02:13:46;;;;;;;6.50;4.40;;;14.50;99.90;;;;;;4993361;28;20030;-74
2022/09/25 02:16:16;;;;;;;7.65;4.63;;;14.50;99.90;;;;;;4993023;28;20479;-74
2022/09/25 02:21:49;;;;;;;6.68;4.68;;;14.50;99.90;;;;;;4993353;28;20041;-75
2022/09/25 02:24:24;;;;;;;7.97;4.70;;;14.50;99.90;;;;;;4991962;28;20030;-76
2022/09/25 02:26:50;;;;;;;7.07;4.45;;;14.40;99.90;;;;;;4992961;28;20053;-74
2022/09/25 02:29:16;;;;;;;8.45;4.75;;;14.50;99.90;;;;;;4993093;28;20100;-75
2022/09/25 02:31:54;;;;;;;8.32;4.20;;;14.50;99.90;;;;;;4993891;28;20022;-74
2022/09/25 02:34:20;;;;;;;7.72;5.10;;;14.50;99.90;;;;;;4992067;28;20031;-75
2022/09/25 02:36:46;;;;;;;9.25;5.15;;;14.50;99.90;;;;;;4992801;28;20490;-74
2022/09/25 02:39:16;;;;;;;9.52;5.80;;;14.50;99.90;;;;;;4992468;28;20523;-74
2022/09/25 02:41:54;;;;;;;9.40;4.90;;;14.50;99.90;;;;;;4993738;28;20030;-74
2022/09/25 02:44:45;;;;;;;11.48;5.85;;;14.50;99.90;;;;;;4975651;28;20019;-74
2022/09/25 02:47:42;;;;;;;10.32;5.57;;;14.50;99.90;;;;;;4993740;28;20080;-74
2022/09/25 02:50:14;;;;;;;8.50;5.40;;;14.50;99.90;;;;;;4993051;28;20121;-74
2022/09/25 02:53:16;;;;;;;9.13;5.57;;;14.40;99.90;;;;;;4992231;28;20498;-74
2022/09/25 02:55:50;;;;;;;8.70;5.88;;;14.40;99.90;;;;;;4965387;28;20037;-74
2022/09/25 02:58:25;;;;;;;9.95;5.80;;;14.40;99.90;;;;;;4991581;28;20093;-76
2022/09/25 03:00:54;;;;;;;8.65;5.95;;;14.40;99.90;;;;;;4992341;28;20088;-74
2022/09/25 03:03:22;;;;;;;9.45;5.93;;;14.50;99.90;;;;;;4992665;28;20026;-75
2022/09/25 03:05:49;;;;;;;10.85;6.22;;;14.40;99.90;;;;;;4991973;28;20030;-74
2022/09/25 03:11:00;;;;;;;10.57;6.28;;;14.40;99.90;;;;;;4993223;28;20037;-74
2022/09/25 03:13:36;;;;;;;10.52;6.50;;;14.40;99.90;;;;;;4992311;28;20030;-74
2022/09/25 03:16:44;;;;;;;9.50;5.75;;;14.40;99.90;;;;;;4993557;28;20072;-74
2022/09/25 03:19:10;;;;;;;10.10;6.32;;;14.40;99.90;;;;;;4993113;28;20045;-74
2022/09/25 03:21:36;;;;;;;11.43;6.50;;;14.40;99.90;;;;;;4991358;28;20521;-74
2022/09/25 03:24:02;;;;;;;13.52;6.13;;;14.40;99.90;;;;;;4991896;28;20432;-74
2022/09/25 03:26:28;;;;;;;11.35;6.97;;;14.40;99.90;;;;;;4992602;28;20479;-74
2022/09/25 03:28:54;;;;;;;12.77;6.85;;;14.40;99.90;;;;;;4991534;28;20058;-74
2022/09/25 03:31:21;;;;;;;11.82;7.13;;;14.40;99.90;;;;;;4991232;28;20030;-74
2022/09/25 03:33:47;;;;;;;15.77;6.63;;;14.30;99.90;;;;;;4991758;28;20030;-74
2022/09/25 03:36:12;;;;;;;11.05;6.30;;;14.30;99.90;;;;;;4991800;28;20371;-74
2022/09/25 03:38:40;;;;;;;10.75;6.35;;;14.30;99.90;;;;;;4992192;28;20415;-74
2022/09/25 03:41:07;;;;;;;10.55;6.57;;;14.30;99.90;;;;;;4992974;28;20089;-74
2022/09/25 03:43:35;;;;;;;10.32;6.70;;;14.30;99.90;;;;;;4991172;28;20022;-74
2022/09/25 03:46:02;;;;;;;9.80;6.28;;;14.30;99.90;;;;;;4992862;28;20069;-74
2022/09/25 03:48:28;;;;;;;9.52;6.13;;;14.30;99.90;;;;;;4990724;28;20439;-75
2022/09/25 03:50:55;;;;;;;12.15;7.03;;;14.30;99.90;;;;;;4991703;28;20026;-74
2022/09/25 03:53:21;;;;;;;10.45;6.30;;;14.30;99.90;;;;;;4991118;28;20112;-75
2022/09/25 03:55:47;;;;;;;11.02;6.82;;;14.30;99.90;;;;;;4992434;28;20384;-74
2022/09/25 03:58:14;;;;;;;11.38;6.72;;;14.30;99.90;;;;;;4992800;28;20026;-74
2022/09/25 04:00:40;;;;;;;10.68;7.10;;;14.30;99.90;;;;;;4990952;28;20031;-74
2022/09/25 04:03:06;;;;;;;11.45;7.05;;;14.30;99.90;;;;;;4992440;28;20387;-74
2022/09/25 04:05:31;;;;;;;9.80;6.47;;;14.30;99.90;;;;;;4992237;28;20033;-74
2022/09/25 04:07:59;;;;;;;11.77;6.63;;;14.30;99.90;;;;;;4991446;28;20038;-74
2022/09/25 04:10:25;;;;;;;15.68;7.15;;;14.40;99.90;;;;;;4990909;28;20476;-74
2022/09/25 04:12:53;;;;;;;10.43;6.55;;;14.40;99.90;;;;;;4991343;28;20033;-74
2022/09/25 04:15:21;;;;;;;9.80;6.00;;;14.40;99.90;;;;;;4992597;28;20034;-74
2022/09/25 04:17:48;;;;;;;13.68;6.57;;;14.40;99.90;;;;;;4991010;28;20105;-74
2022/09/25 04:20:13;;;;;;;15.15;7.18;;;14.40;99.90;;;;;;4991293;28;20043;-74
2022/09/25 04:22:39;;;;;;;13.13;7.07;;;14.40;99.90;;;;;;4992310;28;20101;-74
2022/09/25 04:25:05;;;;;;;14.73;7.68;;;14.40;99.90;;;;;;4995031;28;20117;-74
2022/09/25 04:27:31;;;;;;;12.27;6.38;;;14.40;99.90;;;;;;4994385;28;20383;-74
2022/09/25 04:29:56;;;;;;;11.88;7.10;;;14.40;99.90;;;;;;4994974;28;20023;-74
2022/09/25 04:35:06;;;;;;;10.98;6.75;;;14.30;99.90;;;;;;4996172;28;20042;-74
2022/09/25 04:37:32;;;;;;;9.77;6.28;;;14.30;99.90;;;;;;4994217;28;20387;-74
2022/09/25 04:39:58;;;;;;;9.02;5.93;;;14.30;99.90;;;;;;4994818;28;20395;-74
2022/09/25 04:42:24;;;;;;;8.57;5.82;;;14.40;99.90;;;;;;4994290;28;20440;-74
2022/09/25 04:44:54;;;;;;;9.60;5.95;;;14.40;99.90;;;;;;4995893;28;20023;-74
2022/09/25 04:47:21;;;;;;;13.05;7.05;;;14.40;99.90;;;;;;4995911;28;20034;-74
2022/09/25 04:49:47;;;;;;;12.25;6.47;;;14.30;99.90;;;;;;4995802;28;20065;-74
2022/09/25 04:52:17;;;;;;;14.13;6.88;;;14.40;99.90;;;;;;4995900;28;20426;-74
2022/09/25 04:54:43;;;;;;;11.48;6.32;;;14.40;99.90;;;;;;4993962;28;20034;-75
2022/09/25 04:57:17;;;;;;;9.48;6.90;;;14.40;99.90;;;;;;4995609;28;20027;-74
2022/09/25 04:59:43;;;;;;;10.55;6.72;;;14.40;99.90;;;;;;4995157;28;20415;-74
2022/09/25 05:02:09;;;;;;;9.88;6.40;;;14.40;99.90;;;;;;4995622;28;20022;-75
2022/09/25 05:04:35;;;;;;;13.27;7.50;;;14.40;99.90;;;;;;4995006;28;20030;-74
2022/09/25 05:07:01;;;;;;;12.20;6.85;;;14.40;99.90;;;;;;4994217;28;20368;-75
2022/09/25 05:09:26;;;;;;;11.50;6.32;;;14.40;99.90;;;;;;4993745;28;20072;-75
2022/09/25 05:11:52;;;;;;;11.10;6.25;;;14.40;99.90;;;;;;4995481;28;20062;-74
2022/09/25 05:14:18;;;;;;;10.07;6.07;;;14.40;99.90;;;;;;4995365;28;20450;-75
2022/09/25 05:16:45;;;;;;;9.55;6.20;;;14.30;99.90;;;;;;4993568;28;20445;-75
2022/09/25 05:19:11;;;;;;;9.52;6.07;;;14.30;99.90;;;;;;4994073;28;20076;-74
2022/09/25 05:21:36;;;;;;;10.57;6.05;;;14.30;99.90;;;;;;4993617;28;20041;-75
2022/09/25 05:24:02;;;;;;;9.68;5.63;;;14.30;99.90;;;;;;4994974;28;20022;-74
2022/09/25 05:26:29;;;;;;;8.43;4.75;;;14.30;99.90;;;;;;4993515;28;20081;-75
2022/09/25 05:28:54;;;;;;;8.13;4.97;;;14.30;99.90;;;;;;4995209;28;20027;-74
2022/09/25 05:31:20;;;;;;;7.40;4.38;;;14.30;99.90;;;;;;4993781;28;20026;-74
2022/09/25 05:33:47;;;;;;;6.38;4.28;;;14.30;99.90;;;;;;4993191;28;20030;-74
2022/09/25 05:36:12;;;;;;;5.72;3.75;;;14.30;99.90;;;;;;4994148;28;20448;-74
2022/09/25 05:38:39;;;;;;;5.05;3.85;;;14.30;99.90;;;;;;4994312;28;20030;-74
2022/09/25 05:41:06;;;;;;;5.28;3.45;;;14.30;99.90;;;;;;4994921;28;20045;-74
2022/09/25 05:43:33;;;;;;;5.72;3.45;;;14.30;99.90;;;;;;4994418;28;20452;-75
2022/09/25 05:45:59;;;;;;;6.15;3.50;;;14.30;99.90;;;;;;4993623;28;20527;-73
2022/09/25 05:48:25;;;;;;;5.15;3.13;;;14.30;99.90;;;;;;4994682;28;20140;-74
2022/09/25 05:50:52;;;;;;;4.80;3.22;;;14.30;99.90;;;;;;4993519;28;20030;-74
2022/09/25 05:53:18;;;;;;;4.35;2.65;;;14.30;99.90;;;;;;4993343;28;20030;-74
2022/09/25 05:55:52;;;;;;;4.35;3.03;;;14.30;99.90;;;;;;4992690;28;20033;-74
2022/09/25 05:58:18;;;;;;;4.82;2.88;;;14.20;99.90;;;;;;4993047;28;20141;-74
2022/09/25 06:00:44;;;;;;;21.73;10.88;;;14.20;99.90;;;;;;4992360;28;20089;-75
2022/09/25 06:03:10;;;;;;;6.97;4.05;;;14.20;99.90;;;;;;4993234;28;20042;-74
2022/09/25 06:05:36;;;;;;;4.15;2.95;;;14.20;99.90;;;;;;4992667;28;20065;-74
2022/09/25 06:08:02;;;;;;;3.45;2.60;;;14.20;99.90;;;;;;4993008;28;20126;-74
2022/09/25 06:10:29;;;;;;;3.83;2.30;;;14.20;99.90;;;;;;4993447;28;20041;-75
2022/09/25 06:12:57;;;;;;;4.57;2.30;;;14.20;99.90;;;;;;4992909;28;20072;-74
2022/09/25 06:15:24;;;;;;;2.83;2.33;;;14.20;99.90;;;;;;4994388;28;20027;-75
2022/09/25 06:17:50;;;;;;;4.60;2.17;;;14.20;99.90;;;;;;4992035;28;20038;-74
2022/09/25 06:20:15;;;;;;;3.58;2.15;;;14.20;99.90;;;;;;4992925;28;20134;-74
2022/09/25 06:22:42;;;;;;;2.88;2.28;;;14.20;99.90;;;;;;4992337;28;20538;-74
2022/09/25 06:25:09;;;;;;;3.67;2.00;;;14.20;99.90;;;;;;4993024;28;20038;-74
2022/09/25 06:27:36;;;;;;;2.95;2.28;;;14.20;99.90;;;;;;4992318;28;20068;-75
2022/09/25 06:30:02;;;;;;;5.13;2.40;;;14.20;99.90;;;;;;4994123;28;20023;-74
2022/09/25 06:32:28;;;;;;;5.65;2.50;;;14.20;99.90;;;;;;4992675;28;20134;-74
2022/09/25 06:34:53;;;;;;;5.15;2.58;;;14.20;99.90;;;;;;4992825;28;20365;-74
2022/09/25 06:37:19;;;;;;;5.72;2.80;;;14.20;99.90;;;;;;4993829;28;20084;-74
2022/09/25 06:39:44;;;;;;;3.72;2.53;;;14.20;99.90;;;;;;4991730;28;20037;-74
2022/09/25 06:42:10;;;;;;;3.38;2.40;;;14.20;99.90;;;;;;4992491;28;20038;-74
2022/09/25 06:44:35;;;;;;;4.03;2.67;;;14.20;99.90;;;;;;4993307;28;20031;-75
2022/09/25 06:47:01;;;;;;;4.70;2.65;;;14.20;99.90;;;;;;4992388;28;20026;-74
2022/09/25 06:49:26;;;;;;;3.97;2.60;;;14.20;99.90;;;;;;4992261;28;20058;-74
2022/09/25 06:51:53;;;;;;;3.25;2.15;;;14.30;99.90;;;;;;4991781;28;20030;-74
2022/09/25 06:54:19;;;;;;;4.20;2.53;;;14.30;99.90;;;;;;4992464;28;20037;-75
2022/09/25 06:56:48;;;;;;;4.35;2.40;;;14.30;99.90;;;;;;4991748;28;20030;-74
2022/09/25 06:59:14;;;;;;;5.43;3.00;;;14.30;99.90;;;;;;4992197;28;20034;-74
2022/09/25 07:01:40;;;;;;;4.13;2.67;;;14.30;99.90;;;;;;4991689;28;20080;-74
2022/09/25 07:04:05;;;;;;;3.30;2.50;;;14.30;99.90;;;;;;4993518;28;20050;-74
2022/09/25 07:06:33;;;;;;;3.13;2.50;;;14.30;99.90;;;;;;4992982;28;20030;-75
2022/09/25 07:08:59;;;;;;;5.82;3.67;;;14.30;99.90;;;;;;4992117;28;20121;-74
2022/09/25 07:11:26;;;;;;;6.13;3.90;;;14.30;99.90;;;;;;4993276;28;20110;-74
2022/09/25 07:13:56;;;;;;;4.28;3.05;;;14.40;99.90;;;;;;4991532;28;20034;-74
2022/09/25 07:16:26;;;;;;;4.75;2.83;;;14.40;99.90;;;;;;4991956;28;20065;-74
2022/09/25 07:19:02;;;;;;;4.40;2.92;;;14.40;99.90;;;;;;4991304;28;20065;-74
2022/09/25 07:21:30;;;;;;;6.95;3.40;;;14.40;99.90;;;;;;4993353;28;20169;-74
2022/09/25 07:23:57;;;;;;;7.95;3.92;;;14.50;99.90;;;;;;4993470;28;20165;-74
2022/09/25 07:26:26;;;;;;;8.25;4.22;;;14.40;99.90;;;;;;4992081;28;20030;-74
2022/09/25 07:28:53;;;;;;;5.10;3.50;;;14.50;99.90;;;;;;4992580;28;20135;-74
2022/09/25 07:31:27;;;;;;;4.25;3.30;;;14.40;99.90;;;;;;4975733;28;20058;-75
2022/09/25 07:33:53;;;;;;;4.43;3.30;;;14.50;99.90;;;;;;4991428;28;20022;-74
2022/09/25 07:36:19;;;;;;;5.35;3.60;;;14.50;99.90;;;;;;4993047;28;20491;-74
2022/09/25 07:38:52;;;;;;;6.53;4.10;;;14.40;99.90;;;;;;4992179;28;20077;-74
2022/09/25 07:41:19;;;;;;;4.68;3.30;;;14.40;99.90;;;;;;4993004;28;20034;-74
2022/09/25 07:43:45;;;;;;;5.80;4.43;;;14.40;99.90;;;;;;4991305;28;20027;-74
2022/09/25 07:46:11;;;;;;;8.13;4.85;;;14.40;99.90;;;;;;4991732;28;20416;-74
2022/09/25 07:48:37;;;;;;;8.88;5.20;;;14.40;99.90;;;;;;4987473;28;20109;-74
2022/09/25 07:51:05;;;;;;;8.30;5.20;;;14.50;99.90;;;;;;4973549;28;20027;-74
2022/09/25 07:53:30;;;;;;;10.38;4.93;;;14.50;99.90;;;;;;4973501;28;20031;-74
2022/09/25 07:56:00;;;;;;;8.07;5.22;;;14.60;99.90;;;;;;4972718;28;20023;-74
2022/09/25 07:58:27;;;;;;;6.18;4.72;;;14.60;99.90;;;;;;4974927;28;20035;-74
2022/09/25 08:00:53;;;;;;;10.70;5.18;;;14.70;99.90;;;;;;4976863;28;20042;-74
2022/09/25 08:03:20;;;;;;;9.90;5.18;;;14.70;99.90;;;;;;4992480;28;20023;-74
2022/09/25 08:05:45;;;;;;;12.32;5.20;;;14.70;99.90;;;;;;4976760;28;20031;-74
2022/09/25 08:08:11;;;;;;;10.38;5.28;;;14.70;99.90;;;;;;4977205;28;20113;-74
2022/09/25 08:10:36;;;;;;;8.43;4.97;;;14.70;99.90;;;;;;4991645;28;20045;-75
2022/09/25 08:13:03;;;;;;;6.82;4.93;;;14.80;99.90;;;;;;4992096;28;20026;-74
2022/09/25 08:15:28;;;;;;;7.20;4.80;;;14.80;99.90;;;;;;4992253;28;20080;-74
2022/09/25 08:17:54;;;;;;;8.40;5.13;;;14.80;99.90;;;;;;4991399;28;20173;-74
2022/09/25 08:20:19;;;;;;;6.15;4.53;;;14.70;99.90;;;;;;4992037;28;20472;-74
2022/09/25 08:22:46;;;;;;;8.13;5.15;;;14.70;99.90;;;;;;4991368;28;20027;-75
2022/09/25 08:25:12;;;;;;;8.70;4.85;;;14.70;99.90;;;;;;4991908;28;20226;-74
2022/09/25 08:27:39;;;;;;;8.63;4.80;;;14.70;99.90;;;;;;4991419;28;20146;-75
2022/09/25 08:30:10;;;;;;;6.80;4.55;;;14.60;99.90;;;;;;4991825;28;20026;-75
2022/09/25 08:32:35;;;;;;;7.97;4.43;;;14.60;99.90;;;;;;4991445;28;20034;-78
2022/09/25 08:35:02;;;;;;;10.60;5.10;;;14.60;99.90;;;;;;4991448;28;20022;-74
2022/09/25 08:37:28;;;;;;;8.38;4.90;;;14.60;99.90;;;;;;4991601;28;20030;-74
2022/09/25 08:39:53;;;;;;;6.75;4.45;;;14.60;99.90;;;;;;4991158;28;20034;-74
2022/09/25 08:42:28;;;;;;;7.47;5.10;;;14.60;99.90;;;;;;4976652;28;20026;-74
2022/09/25 08:50:28;;;;;;;7.15;3.47;;;14.70;99.90;;;;;;4995941;28;20070;-74
2022/09/25 08:53:34;;;;;;;6.10;3.22;;;14.60;99.90;;;;;;4994070;28;20022;-74
2022/09/25 08:56:14;;;;;;;5.80;3.42;;;14.60;99.90;;;;;;4995261;28;20525;-75
2022/09/25 08:58:44;;;;;;;6.40;3.60;;;14.60;99.90;;;;;;4993999;28;20040;-75
2022/09/25 09:01:24;;;;;;;5.75;3.75;;;14.60;99.90;;;;;;4978336;28;20498;-74
2022/09/25 09:04:13;;;;;;;5.53;3.58;;;14.60;99.90;;;;;;4993944;28;20054;-75
2022/09/25 09:06:41;;;;;;;7.03;3.60;;;14.60;99.90;;;;;;4993927;28;20076;-75
2022/09/25 09:09:22;;;;;;;7.90;3.97;;;14.60;99.90;;;;;;4994917;28;20048;-74
2022/09/25 09:11:54;;;;;;;7.07;4.27;;;14.60;99.90;;;;;;4993734;28;20030;-74
2022/09/25 09:14:21;;;;;;;6.13;3.65;;;14.60;99.90;;;;;;4994257;28;20029;-74
2022/09/25 09:17:04;;;;;;;8.00;4.15;;;14.50;99.90;;;;;;4994615;28;20027;-74
2022/09/25 09:19:30;;;;;;;7.25;4.03;;;14.50;99.90;;;;;;4995362;28;20030;-74
2022/09/25 09:22:16;;;;;;;8.13;3.80;;;14.50;99.90;;;;;;4993533;28;20039;-74
2022/09/25 09:25:19;;;;;;;5.53;3.42;;;14.60;99.90;;;;;;4994946;28;20105;-75
2022/09/25 09:28:08;;;;;;;8.30;3.90;;;14.60;99.90;;;;;;4993471;28;20523;-74
2022/09/25 09:30:44;;;;;;;10.90;4.68;;;14.60;99.90;;;;;;4977809;28;20058;-75
2022/09/25 09:33:17;;;;;;;14.27;3.92;;;14.70;99.90;;;;;;4994176;28;20034;-74
2022/09/25 09:36:09;;;;;;;6.35;3.75;;;14.70;99.90;;;;;;4994612;28;20058;-74
2022/09/25 09:38:44;;;;;;;5.95;3.65;;;14.80;99.90;;;;;;4977750;28;20026;-74
2022/09/25 09:41:32;;;;;;;5.93;3.92;;;14.80;99.90;;;;;;4977766;28;20041;-74
2022/09/25 09:44:17;;;;;;;6.03;4.03;;;14.80;99.90;;;;;;4974692;28;20046;-74
2022/09/25 09:47:06;;;;;;;6.60;3.95;;;14.70;99.90;;;;;;4993129;28;20029;-75
2022/09/25 09:49:49;;;;;;;9.32;3.80;;;14.70;99.90;;;;;;4987867;28;20050;-74
2022/09/25 09:52:32;;;;;;;7.80;4.45;;;14.70;99.90;;;;;;4993508;28;20030;-74
2022/09/25 09:55:35;;;;;;;7.72;4.88;;;14.70;99.90;;;;;;4992983;28;20449;-74
2022/09/25 09:58:09;;;;;;;7.32;4.60;;;14.80;99.90;;;;;;4992825;28;20045;-74
2022/09/25 10:00:37;;;;;;;8.27;5.25;;;14.80;99.90;;;;;;4993449;28;20034;-74
2022/09/25 10:03:10;;;;;;;8.45;4.95;;;14.80;99.90;;;;;;4992758;28;20468;-74
2022/09/25 10:05:56;;;;;;;6.75;4.78;;;14.80;99.90;;;;;;4993394;28;20027;-75
2022/09/25 10:08:22;;;;;;;6.20;4.50;;;14.80;99.90;;;;;;4993155;28;20027;-74
2022/09/25 10:10:53;;;;;;;7.93;4.30;;;14.80;99.90;;;;;;4992628;28;20122;-74
2022/09/25 10:13:24;;;;;;;5.35;4.00;;;14.70;99.90;;;;;;4994426;28;20061;-74
2022/09/25 10:16:04;;;;;;;7.18;4.00;;;14.70;99.90;;;;;;4976021;28;20043;-74
2022/09/25 10:18:37;;;;;;;7.00;4.40;;;14.80;99.90;;;;;;4993920;28;20042;-74
2022/09/25 10:21:12;;;;;;;7.55;4.32;;;14.80;99.90;;;;;;4992105;28;20476;-74
2022/09/25 10:23:57;;;;;;;7.97;4.32;;;14.90;99.90;;;;;;4992926;28;20026;-74
2022/09/25 10:26:27;;;;;;;7.43;4.43;;;14.90;99.90;;;;;;4994183;28;20368;-74
2022/09/25 10:28:57;;;;;;;8.10;4.25;;;14.90;99.90;;;;;;4993481;28;20116;-75
2022/09/25 10:31:25;;;;;;;9.20;4.15;;;14.90;99.90;;;;;;4993942;28;20026;-74
2022/09/25 10:34:05;;;;;;;6.90;4.38;;;14.90;99.90;;;;;;4992223;28;20023;-74
2022/09/25 10:36:40;;;;;;;5.28;4.05;;;14.90;99.90;;;;;;4992782;28;20110;-74
2022/09/25 10:39:24;;;;;;;10.10;4.18;;;14.90;99.90;;;;;;4993436;28;20031;-74
2022/09/25 10:41:51;;;;;;;4.35;3.20;;;14.90;99.90;;;;;;4975975;28;20065;-74
2022/09/25 10:44:34;;;;;;;4.95;3.42;;;14.90;99.90;;;;;;4992642;28;20384;-74
2022/09/25 10:50:20;;;;;;;3.85;2.50;;;15.00;99.90;;;;;;4952537;29;20184;-74
2022/09/25 10:52:48;;;;;;;4.03;2.58;;;15.10;99.90;;;;;;4954025;28;20048;-75
2022/09/25 10:55:36;;;;;;;5.40;2.42;;;15.10;99.90;;;;;;4954979;28;20453;-74
2022/09/25 10:58:12;;;;;;;5.05;2.40;;;15.20;99.90;;;;;;4954301;28;20080;-74
2022/09/25 11:00:53;;;;;;;4.10;2.05;;;15.20;99.90;;;;;;4953391;29;20128;-74
2022/09/25 11:03:24;;;;;;;3.80;2.22;;;15.30;99.90;;;;;;4955122;28;20062;-74
2022/09/25 11:06:02;;;;;;;3.25;1.98;;;15.30;99.90;;;;;;4969378;28;20039;-75
2022/09/25 11:08:31;;;;;;;3.25;2.40;;;15.40;99.90;;;;;;4953292;29;20035;-74
2022/09/25 11:11:00;;;;;;;3.00;2.10;;;15.40;99.90;;;;;;4954070;28;20461;-74
2022/09/25 11:13:35;;;;;;;2.78;2.38;;;15.40;99.90;;;;;;4953639;29;20054;-74
2022/09/25 11:16:09;;;;;;;2.95;2.30;;;15.40;99.90;;;;;;4953174;29;20057;-75
2022/09/25 11:18:37;;;;;;;3.00;2.50;;;15.50;99.90;;;;;;4969362;28;20535;-74
2022/09/25 11:21:05;;;;;;;2.67;2.20;;;15.60;99.90;;;;;;4954103;28;20045;-74
2022/09/25 11:23:41;;;;;;;3.30;2.70;;;15.60;99.90;;;;;;4953379;29;20031;-74
2022/09/25 11:26:19;;;;;;;2.63;2.17;;;15.70;99.90;;;;;;4952792;29;20039;-75
2022/09/25 11:28:53;;;;;;;3.30;2.03;;;15.80;99.90;;;;;;4954623;28;20031;-74
2022/09/25 11:31:38;;;;;;;4.30;2.40;;;15.80;99.90;;;;;;4953218;29;20027;-74
2022/09/25 11:34:24;;;;;;;3.05;2.45;;;15.80;99.90;;;;;;4951881;28;20038;-74
2022/09/25 11:36:58;;;;;;;2.50;2.10;;;15.80;99.90;;;;;;4953978;29;20035;-75
2022/09/25 11:42:35;;;;;;;2.88;2.25;;;15.70;99.90;;;;;;4954147;29;20050;-74
2022/09/25 11:45:35;;;;;;;4.70;2.45;;;15.70;99.90;;;;;;4952574;29;20063;-74
2022/09/25 11:48:28;;;;;;;2.75;2.00;;;15.80;99.90;;;;;;4952335;29;20042;-75
2022/09/25 11:51:04;;;;;;;2.92;2.25;;;15.70;99.90;;;;;;4988044;28;20051;-74
2022/09/25 11:53:56;;;;;;;3.60;2.60;;;15.60;99.90;;;;;;4973562;28;20027;-74
2022/09/25 11:56:40;;;;;;;5.25;2.90;;;15.60;99.90;;;;;;4957900;28;20362;-74
2022/09/25 11:59:37;;;;;;;4.95;2.63;;;15.60;99.90;;;;;;4971621;28;20039;-74
2022/09/25 12:02:29;;;;;;;3.83;2.50;;;15.60;99.90;;;;;;4987849;28;20126;-74
2022/09/25 12:05:05;;;;;;;2.88;2.30;;;15.60;99.90;;;;;;4968449;28;20066;-74
2022/09/25 12:07:44;;;;;;;3.45;2.60;;;15.60;99.90;;;;;;4988311;28;20027;-74
2022/09/25 12:10:18;;;;;;;4.53;2.63;;;15.60;99.90;;;;;;4987791;28;20023;-74
2022/09/25 12:12:58;;;;;;;3.50;2.53;;;15.60;99.90;;;;;;4972174;28;20045;-74
2022/09/25 12:15:52;;;;;;;3.45;2.20;;;15.60;99.90;;;;;;4971999;28;20038;-74
2022/09/25 12:18:47;;;;;;;3.65;2.60;;;15.60;99.90;;;;;;4973186;28;20456;-74
2022/09/25 12:21:32;;;;;;;3.90;2.17;;;15.80;99.90;;;;;;4966991;28;20082;-74
2022/09/25 12:24:22;;;;;;;3.47;2.33;;;15.80;99.90;;;;;;4987632;28;20050;-74
2022/09/25 12:26:57;;;;;;;2.65;1.98;;;15.80;99.90;;;;;;4988230;28;20034;-75
2022/09/25 12:29:56;;;;;;;3.58;1.92;;;15.80;99.90;;;;;;4972217;28;20058;-74
2022/09/25 12:32:38;;;;;;;2.28;1.98;;;15.70;99.90;;;;;;4973144;28;20030;-74
2022/09/25 12:35:17;;;;;;;2.35;2.00;;;15.80;99.90;;;;;;4971365;28;20037;-75
2022/09/25 12:38:04;;;;;;;2.35;1.88;;;15.80;99.90;;;;;;4973096;28;20022;-74
2022/09/25 12:40:42;;;;;;;2.50;1.70;;;15.70;99.90;;;;;;4988221;28;20031;-75
2022/09/25 12:43:23;;;;;;;2.72;2.10;;;15.80;99.90;;;;;;4987471;28;20046;-74
2022/09/25 12:46:28;;;;;;;4.45;1.80;;;15.80;99.90;;;;;;4991425;28;20030;-75
2022/09/25 12:49:09;;;;;;;2.88;1.90;;;15.80;99.90;;;;;;4973519;28;20116;-75
2022/09/25 12:51:46;;;;;;;2.28;1.67;;;16.00;99.90;;;;;;4994814;28;20030;-75
2022/09/25 12:54:28;;;;;;;2.47;1.83;;;16.10;99.90;;;;;;4995300;28;20380;-75
2022/09/25 12:56:58;;;;;;;;;;;16.20;99.90;;;;;;4995700;28;20026;-75
2022/09/25 12:59:54;;;;;;;2.97;1.92;;;16.30;99.90;;;;;;4994419;28;19960;-75
2022/09/25 13:02:41;;;;;;;2.47;1.80;;;16.40;99.90;;;;;;4994569;28;20030;-75
2022/09/25 13:05:19;;;;;;;6.45;1.88;;;16.50;99.90;;;;;;4977625;28;20019;-75
2022/09/25 13:08:04;;;;;;;3.05;1.67;;;16.50;99.90;;;;;;4995565;28;20057;-75
2022/09/25 13:10:55;;;;;;;2.65;1.80;;;16.40;99.90;;;;;;4994505;28;20084;-75
2022/09/25 13:13:25;;;;;;;1.50;1.10;;;16.30;99.90;;;;;;4995644;28;20510;-74
2022/09/25 13:15:58;;;;;;;2.20;1.73;;;16.30;99.90;;;;;;4994201;28;20423;-75
2022/09/25 13:18:25;;;;;;;2.55;1.75;;;16.30;99.90;;;;;;4995658;28;20038;-75
2022/09/25 13:20:56;;;;;;;1.73;1.35;;;16.40;99.90;;;;;;4994019;28;20041;-75
2022/09/25 13:23:32;;;;;;;4.80;1.80;;;16.50;99.90;;;;;;4994159;28;20479;-75
2022/09/25 13:26:08;;;;;;;2.88;1.73;;;16.70;99.90;;;;;;4993650;28;20220;-75
2022/09/25 13:28:39;;;;;;;3.67;1.35;;;16.80;99.90;;;;;;4995379;28;20057;-74
2022/09/25 13:31:06;;;;;;;2.75;1.77;;;16.80;99.90;;;;;;4993512;28;20022;-75
2022/09/25 13:33:56;;;;;;;3.05;1.58;;;16.80;99.90;;;;;;4993902;28;20053;-75